Central Oregon RPC :: BURNEY, CA A

liberation: 2020-06-20  06:00     latitude: 40.876335     longitude: -121.674533 61 birds
# LOFT PRING MILES ARRIVAL SPEED ToWin
1 HENDRICKSON FAMILY LOFT AU18-CORP-4034 242.668 2020-06-20 11:09:29.279 1380.010 00:00:00
2 HENDRICKSON FAMILY LOFT AU18-CORP-4012 242.668 2020-06-20 11:12:59.625 1364.553 00:03:30
3 HENDRICKSON FAMILY LOFT AU19-ARPU-29020 242.668 2020-06-20 17:53:10.339 598.869 06:43:41
4 HENDRICKSON FAMILY LOFT AU19-CORP-4366 242.668 2020-06-20 21:17:08.809 468.367 10:02:24
AMERICAN LOFT AU17-CORP-0062 0 0000-00-00 00:00:00.000 0.000 00:00:00
AMERICAN LOFT AU18-CORP-2550 0 0000-00-00 00:00:00.000 0.000 00:00:00
AMERICAN LOFT AU18-CORP-2818 0 0000-00-00 00:00:00.000 0.000 00:00:00
AMERICAN LOFT AU19-CORP-4605 0 0000-00-00 00:00:00.000 0.000 00:00:00
AMERICAN LOFT AU19-CORP-4622 0 0000-00-00 00:00:00.000 0.000 00:00:00
AMERICAN LOFT AU19-CORP-4635 0 0000-00-00 00:00:00.000 0.000 00:00:00
AMERICAN LOFT AU19-CORP-4652 0 0000-00-00 00:00:00.000 0.000 00:00:00
AMERICAN LOFT AU19-CORP-4690 0 0000-00-00 00:00:00.000 0.000 00:00:00
AMERICAN LOFT AU19-CORP-4699 0 0000-00-00 00:00:00.000 0.000 00:00:00
AMERICAN LOFT AU19-CORP-4706 0 0000-00-00 00:00:00.000 0.000 00:00:00
AMERICAN LOFT AU19-CORP-4714 0 0000-00-00 00:00:00.000 0.000 00:00:00
AMERICAN LOFT AU19-CORP-4735 0 0000-00-00 00:00:00.000 0.000 00:00:00
ROCKY TOP AU16-CORP-7143 0 0000-00-00 00:00:00.000 0.000 00:00:00
ROCKY TOP AU16-CORP-7701 0 0000-00-00 00:00:00.000 0.000 00:00:00
ROCKY TOP AU17-OTC-0317 0 0000-00-00 00:00:00.000 0.000 00:00:00
ROCKY TOP AU18-CORP-3300 0 0000-00-00 00:00:00.000 0.000 00:00:00
ROCKY TOP AU18-CORP-3343 0 0000-00-00 00:00:00.000 0.000 00:00:00
ROCKY TOP AU18-CORP-3353 0 0000-00-00 00:00:00.000 0.000 00:00:00
ROCKY TOP AU18-CORP-3354 0 0000-00-00 00:00:00.000 0.000 00:00:00
ROCKY TOP AU18-CORP-3365 0 0000-00-00 00:00:00.000 0.000 00:00:00
ROCKY TOP AU19-CORP-4405 0 0000-00-00 00:00:00.000 0.000 00:00:00
ROCKY TOP AU19-CORP-4442 0 0000-00-00 00:00:00.000 0.000 00:00:00
ROCKY TOP AU19-CORP-4443 0 0000-00-00 00:00:00.000 0.000 00:00:00
ROCKY TOP AU19-CORP-4474 0 0000-00-00 00:00:00.000 0.000 00:00:00
RUETER FAMILY LOFT AU17-CORP-0419 0 0000-00-00 00:00:00.000 0.000 00:00:00
RUETER FAMILY LOFT AU17-CORP-0498 0 0000-00-00 00:00:00.000 0.000 00:00:00
RUETER FAMILY LOFT AU19-CORP-5250 0 0000-00-00 00:00:00.000 0.000 00:00:00
RUETER FAMILY LOFT AU19-CORP-5258 0 0000-00-00 00:00:00.000 0.000 00:00:00
RUETER FAMILY LOFT AU19-CORP-5291 0 0000-00-00 00:00:00.000 0.000 00:00:00
RUETER FAMILY LOFT AU19-CORP-5295 0 0000-00-00 00:00:00.000 0.000 00:00:00
RUETER FAMILY LOFT AU19-CORP-5317 0 0000-00-00 00:00:00.000 0.000 00:00:00
RUETER FAMILY LOFT AU19-CORP-5405 0 0000-00-00 00:00:00.000 0.000 00:00:00
RUETER FAMILY LOFT AU19-CORP-5408 0 0000-00-00 00:00:00.000 0.000 00:00:00
RUETER FAMILY LOFT AU19-CORP-5419 0 0000-00-00 00:00:00.000 0.000 00:00:00
RUETER FAMILY LOFT AU19-CORP-5456 0 0000-00-00 00:00:00.000 0.000 00:00:00
RUETER FAMILY LOFT AU19-CORP-5477 0 0000-00-00 00:00:00.000 0.000 00:00:00
STEELE LOFT AU19-AVI-19525 0 0000-00-00 00:00:00.000 0.000 00:00:00
STEELE LOFT AU19-CORP-4008 0 0000-00-00 00:00:00.000 0.000 00:00:00
STEELE LOFT AU19-CORP-4022 0 0000-00-00 00:00:00.000 0.000 00:00:00
STEELE LOFT AU19-CORP-4024 0 0000-00-00 00:00:00.000 0.000 00:00:00
STEELE LOFT AU19-CORP-4039 0 0000-00-00 00:00:00.000 0.000 00:00:00
STEELE LOFT AU19-CORP-4045 0 0000-00-00 00:00:00.000 0.000 00:00:00
TIM GRAVES AU14-TAR-0426 0 0000-00-00 00:00:00.000 0.000 00:00:00
TIM GRAVES AU15-AA-14507 0 0000-00-00 00:00:00.000 0.000 00:00:00
TIM GRAVES AU15-AA-14510 0 0000-00-00 00:00:00.000 0.000 00:00:00
TIM GRAVES AU15-CORP-3070 0 0000-00-00 00:00:00.000 0.000 00:00:00
TIM GRAVES AU15-CORP-3096 0 0000-00-00 00:00:00.000 0.000 00:00:00
TIM GRAVES AU17-CORP-0834 0 0000-00-00 00:00:00.000 0.000 00:00:00
TIM GRAVES AU17-CORP-0883 0 0000-00-00 00:00:00.000 0.000 00:00:00
TIM GRAVES AU17-FHI-1014 0 0000-00-00 00:00:00.000 0.000 00:00:00
TIM GRAVES AU19-CORP-4220 0 0000-00-00 00:00:00.000 0.000 00:00:00
TOPIGEONUSA AU14-CORP-1078 0 0000-00-00 00:00:00.000 0.000 00:00:00
TOPIGEONUSA AU17-CAPT-0054 0 0000-00-00 00:00:00.000 0.000 00:00:00
TOPIGEONUSA AU17-VLJ-0728 0 0000-00-00 00:00:00.000 0.000 00:00:00
TOPIGEONUSA AU18-CORP-4253 0 0000-00-00 00:00:00.000 0.000 00:00:00
TOPIGEONUSA AU19-CORP-4938 0 0000-00-00 00:00:00.000 0.000 00:00:00
TOPIGEONUSA AU19-CORP-5140 0 0000-00-00 00:00:00.000 0.000 00:00:00